createdAt,value
2018-03-07T00:00:32.049Z,3.66
2018-03-07T00:01:32.223Z,3.47
2018-03-07T00:02:32.397Z,3.58
2018-03-07T00:03:32.575Z,3.44
2018-03-07T00:04:32.752Z,3.42
2018-03-07T00:05:32.918Z,3.47
2018-03-07T00:06:33.097Z,3.47
2018-03-07T00:07:33.277Z,3.55
2018-03-07T00:08:33.446Z,3.63
2018-03-07T00:09:33.624Z,3.36
2018-03-07T00:11:33.986Z,3.42
2018-03-07T00:12:34.142Z,3.55
2018-03-07T00:13:34.318Z,3.48
2018-03-07T00:14:34.497Z,3.58
2018-03-07T00:15:34.669Z,3.60
2018-03-07T00:16:34.846Z,3.65
2018-03-07T00:17:35.020Z,3.60
2018-03-07T00:18:35.195Z,3.73
2018-03-07T00:19:35.378Z,3.69
2018-03-07T00:20:35.904Z,3.65
2018-03-07T00:21:35.729Z,3.66
2018-03-07T00:22:35.900Z,3.69
2018-03-07T00:23:36.109Z,3.80
2018-03-07T00:24:36.247Z,3.77
2018-03-07T00:25:36.427Z,3.63
2018-03-07T00:26:36.589Z,3.60
2018-03-07T00:27:36.760Z,3.65
2018-03-07T00:28:36.939Z,3.62
2018-03-07T00:29:37.120Z,3.76
2018-03-07T00:30:37.291Z,3.80
2018-03-07T00:31:37.467Z,3.69
2018-03-07T00:32:37.641Z,3.81
2018-03-07T00:33:37.817Z,3.80
2018-03-07T00:34:37.988Z,3.73
2018-03-07T00:35:38.162Z,3.59
2018-03-07T00:36:38.341Z,3.55
2018-03-07T00:37:38.519Z,3.60
2018-03-07T00:38:38.683Z,3.58
2018-03-07T00:39:38.861Z,3.45
2018-03-07T00:40:39.037Z,3.45
2018-03-07T00:41:39.210Z,3.50
2018-03-07T00:42:39.393Z,3.47
2018-03-07T00:43:39.565Z,3.41
2018-03-07T00:44:39.742Z,3.60
2018-03-07T00:45:39.901Z,3.50
2018-03-07T00:46:40.078Z,3.45
2018-03-07T00:47:40.257Z,3.53
2018-03-07T00:48:40.431Z,3.58
2018-03-07T00:49:40.607Z,3.58
2018-03-07T00:50:40.774Z,3.47
2018-03-07T00:51:40.956Z,3.47
2018-03-07T00:52:41.132Z,3.45
2018-03-07T00:53:41.301Z,3.44
2018-03-07T00:54:41.479Z,3.45
2018-03-07T00:55:41.648Z,3.50
2018-03-07T00:56:41.824Z,3.42
2018-03-07T00:57:41.998Z,3.31
2018-03-07T00:58:42.179Z,3.31
2018-03-07T00:59:42.353Z,3.16
2018-03-07T01:00:42.531Z,3.14
2018-03-07T01:01:42.704Z,3.13
2018-03-07T01:02:42.881Z,3.04
2018-03-07T01:03:43.050Z,3.08
2018-03-07T01:04:43.230Z,3.07
2018-03-07T01:05:43.403Z,2.92
2018-03-07T01:06:43.579Z,3.07
2018-03-07T01:07:43.753Z,3.07
2018-03-07T01:08:43.935Z,3.11
2018-03-07T01:09:44.101Z,3.14
2018-03-07T01:10:44.528Z,3.08
2018-03-07T01:11:44.457Z,3.11
2018-03-07T01:12:44.628Z,3.13
2018-03-07T01:13:44.808Z,3.10
2018-03-07T01:14:44.984Z,3.10
2018-03-07T01:15:45.177Z,3.11
2018-03-07T01:16:45.324Z,3.05
2018-03-07T01:17:45.501Z,2.93
2018-03-07T01:18:45.680Z,2.93
2018-03-07T01:19:45.851Z,3.03
2018-03-07T01:20:46.278Z,3.07
2018-03-07T01:21:46.204Z,3.01
2018-03-07T01:22:46.378Z,3.07
2018-03-07T01:23:46.559Z,3.16
2018-03-07T01:24:46.723Z,3.08
2018-03-07T01:25:46.908Z,3.11
2018-03-07T01:26:47.091Z,3.11
2018-03-07T01:27:47.249Z,3.14
2018-03-07T01:28:47.422Z,3.14
2018-03-07T01:29:47.597Z,3.14
2018-03-07T01:30:47.773Z,3.07
2018-03-07T01:31:47.951Z,3.08
2018-03-07T01:32:48.123Z,3.01
2018-03-07T01:33:48.300Z,2.97
2018-03-07T01:34:48.473Z,2.95
2018-03-07T01:35:48.650Z,2.95
2018-03-07T01:36:48.825Z,3.05
2018-03-07T01:37:48.997Z,3.08
2018-03-07T01:38:49.177Z,3.18
2018-03-07T01:39:49.347Z,2.79
2018-03-07T01:40:49.528Z,2.87
2018-03-07T01:41:49.705Z,2.95
2018-03-07T01:42:49.872Z,2.97
2018-03-07T01:44:50.218Z,3.00
2018-03-07T01:45:50.388Z,3.05
2018-03-07T01:46:50.556Z,3.11
2018-03-07T01:47:50.735Z,3.00
2018-03-07T01:48:50.907Z,3.07
2018-03-07T01:49:51.083Z,2.90
2018-03-07T01:50:51.254Z,2.97
2018-03-07T01:51:51.431Z,2.93
2018-03-07T01:52:51.604Z,2.90
2018-03-07T01:53:51.778Z,2.90
2018-03-07T01:54:51.948Z,2.97
2018-03-07T01:55:52.126Z,2.95
2018-03-07T01:56:52.304Z,2.98
2018-03-07T01:57:52.475Z,2.92
2018-03-07T01:58:52.655Z,2.89
2018-03-07T01:59:52.825Z,2.90
2018-03-07T02:00:53.003Z,2.93
2018-03-07T02:01:53.172Z,2.93
2018-03-07T02:02:53.346Z,2.85
2018-03-07T02:03:53.528Z,2.75
2018-03-07T02:04:53.694Z,2.80
2018-03-07T02:05:53.872Z,2.75
2018-03-07T02:06:54.042Z,2.79
2018-03-07T02:07:54.217Z,2.71
2018-03-07T02:08:54.392Z,2.67
2018-03-07T02:09:54.564Z,2.79
2018-03-07T02:10:54.744Z,2.71
2018-03-07T02:11:54.927Z,2.79
2018-03-07T02:12:55.084Z,2.68
2018-03-07T02:13:55.504Z,2.79
2018-03-07T02:14:55.445Z,2.82
2018-03-07T02:15:55.612Z,2.80
2018-03-07T02:17:55.955Z,2.67
2018-03-07T02:18:56.136Z,2.65
2018-03-07T02:19:56.303Z,2.62
2018-03-07T02:20:56.483Z,2.54
2018-03-07T02:21:56.649Z,2.61
2018-03-07T02:22:56.824Z,2.56
2018-03-07T02:23:56.994Z,2.71
2018-03-07T02:24:57.168Z,2.75
2018-03-07T02:25:57.345Z,2.77
2018-03-07T02:26:57.523Z,2.83
2018-03-07T02:27:57.691Z,2.85
2018-03-07T02:28:57.866Z,2.90
2018-03-07T02:29:58.039Z,3.05
2018-03-07T02:30:58.217Z,2.97
2018-03-07T02:31:58.394Z,2.90
2018-03-07T02:32:58.577Z,3.03
2018-03-07T02:33:58.745Z,3.05
2018-03-07T02:34:58.923Z,3.01
2018-03-07T02:35:59.092Z,2.89
2018-03-07T02:36:59.274Z,2.97
2018-03-07T02:37:59.446Z,3.18
2018-03-07T02:38:59.641Z,3.05
2018-03-07T02:39:59.808Z,3.05
2018-03-07T02:40:59.982Z,3.16
2018-03-07T02:42:00.161Z,3.10
2018-03-07T02:43:00.349Z,3.01
2018-03-07T02:44:00.498Z,3.11
2018-03-07T02:45:00.677Z,3.16
2018-03-07T02:46:00.850Z,3.01
2018-03-07T02:47:01.015Z,3.21
2018-03-07T02:48:01.189Z,3.18
2018-03-07T02:49:01.362Z,3.16
2018-03-07T02:50:01.541Z,3.11
2018-03-07T02:51:01.714Z,3.10
2018-03-07T02:52:01.889Z,3.07
2018-03-07T02:53:02.068Z,3.07
2018-03-07T02:54:02.236Z,2.98
2018-03-07T02:55:02.422Z,2.98
2018-03-07T02:56:02.585Z,2.98
2018-03-07T02:57:02.765Z,2.93
2018-03-07T02:58:02.936Z,2.95
2018-03-07T02:59:03.112Z,2.93
2018-03-07T03:00:03.289Z,2.95
2018-03-07T03:01:03.464Z,3.00
2018-03-07T03:02:03.636Z,2.97
2018-03-07T03:03:03.815Z,2.97
2018-03-07T03:04:03.989Z,3.05
2018-03-07T03:05:04.165Z,3.18
2018-03-07T03:06:04.344Z,3.10
2018-03-07T03:07:04.509Z,3.11
2018-03-07T03:08:04.696Z,3.05
2018-03-07T03:09:04.879Z,3.14
2018-03-07T03:10:05.043Z,3.16
2018-03-07T03:11:05.208Z,3.11
2018-03-07T03:12:05.388Z,3.19
2018-03-07T03:13:05.562Z,3.23
2018-03-07T03:14:05.736Z,3.11
2018-03-07T03:15:05.913Z,3.23
2018-03-07T03:16:06.090Z,3.19
2018-03-07T03:17:06.263Z,3.19
2018-03-07T03:18:06.436Z,3.11
2018-03-07T03:19:06.614Z,3.10
2018-03-07T03:20:06.799Z,3.07
2018-03-07T03:21:06.966Z,2.93
2018-03-07T03:22:07.142Z,2.95
2018-03-07T03:23:07.315Z,3.05
2018-03-07T03:24:07.490Z,3.08
2018-03-07T03:25:07.664Z,3.07
2018-03-07T03:26:07.837Z,3.00
2018-03-07T03:28:08.185Z,2.86
2018-03-07T03:29:08.367Z,2.80
2018-03-07T03:30:08.539Z,2.61
2018-03-07T03:31:08.713Z,2.71
2018-03-07T03:32:08.896Z,2.74
2018-03-07T03:33:09.074Z,2.69
2018-03-07T03:34:09.249Z,2.75
2018-03-07T03:35:09.422Z,2.77
2018-03-07T03:36:09.603Z,2.68
2018-03-07T03:37:09.775Z,2.77
2018-03-07T03:38:09.947Z,2.71
2018-03-07T03:39:10.121Z,2.71
2018-03-07T03:40:10.299Z,2.72
2018-03-07T03:41:10.479Z,2.74
2018-03-07T03:42:10.652Z,2.74
2018-03-07T03:43:10.826Z,2.69
2018-03-07T03:44:10.997Z,2.80
2018-03-07T03:45:11.166Z,2.80
2018-03-07T03:46:11.343Z,2.82
2018-03-07T03:47:11.524Z,2.74
2018-03-07T03:48:11.689Z,2.68
2018-03-07T03:49:11.859Z,2.68
2018-03-07T03:50:12.039Z,2.77
2018-03-07T03:51:12.211Z,2.68
2018-03-07T03:52:12.385Z,2.69
2018-03-07T03:53:12.560Z,2.71
2018-03-07T03:54:12.735Z,2.64
2018-03-07T03:55:12.905Z,2.68
2018-03-07T03:56:13.082Z,2.62
2018-03-07T03:57:13.253Z,2.64
2018-03-07T03:58:13.428Z,2.56
2018-03-07T03:59:13.600Z,2.60
2018-03-07T04:00:13.775Z,2.64
2018-03-07T04:01:13.951Z,2.56
2018-03-07T04:02:14.130Z,2.61
2018-03-07T04:03:14.303Z,2.54
2018-03-07T04:04:14.474Z,2.62
2018-03-07T04:05:14.652Z,2.51
2018-03-07T04:06:14.823Z,2.54
2018-03-07T04:07:15.004Z,2.57
2018-03-07T04:08:15.176Z,2.60
2018-03-07T04:09:15.355Z,2.69
2018-03-07T04:10:15.523Z,2.60
2018-03-07T04:11:15.704Z,2.61
2018-03-07T04:12:16.120Z,2.71
2018-03-07T04:13:16.044Z,2.80
2018-03-07T04:14:16.219Z,2.95
2018-03-07T04:15:16.402Z,2.90
2018-03-07T04:16:16.567Z,2.95
2018-03-07T04:17:16.742Z,2.95
2018-03-07T04:18:16.917Z,3.00
2018-03-07T04:19:17.090Z,2.95
2018-03-07T04:20:17.264Z,3.07
2018-03-07T04:21:17.452Z,3.05
2018-03-07T04:22:17.620Z,3.28
2018-03-07T04:23:17.790Z,3.22
2018-03-07T04:24:17.968Z,3.18
2018-03-07T04:25:18.141Z,3.05
2018-03-07T04:26:18.308Z,3.19
2018-03-07T04:27:18.488Z,3.10
2018-03-07T04:28:18.657Z,3.16
2018-03-07T04:29:18.832Z,3.14
2018-03-07T04:30:19.006Z,3.14
2018-03-07T04:31:19.178Z,3.11
2018-03-07T04:32:19.366Z,3.04
2018-03-07T04:33:19.530Z,3.14
2018-03-07T04:34:19.708Z,3.16
2018-03-07T04:35:19.874Z,3.14
2018-03-07T04:36:20.047Z,2.95
2018-03-07T04:37:20.233Z,3.10
2018-03-07T04:38:20.397Z,3.18
2018-03-07T04:39:20.580Z,3.07
2018-03-07T04:40:20.750Z,3.05
2018-03-07T04:41:20.922Z,3.05
2018-03-07T04:42:21.096Z,2.93
2018-03-07T04:43:21.269Z,2.97
2018-03-07T04:44:21.447Z,3.11
2018-03-07T04:45:21.623Z,3.08
2018-03-07T04:46:21.792Z,3.00
2018-03-07T04:47:22.208Z,2.83
2018-03-07T04:48:22.149Z,2.97
2018-03-07T04:49:22.321Z,2.89
2018-03-07T04:50:22.499Z,3.00
2018-03-07T04:51:22.675Z,3.00
2018-03-07T04:52:22.843Z,3.04
2018-03-07T04:53:23.015Z,3.03
2018-03-07T04:54:23.193Z,3.08
2018-03-07T04:55:23.364Z,3.08
2018-03-07T04:56:23.540Z,3.11
2018-03-07T04:57:23.713Z,3.10
2018-03-07T04:58:23.888Z,3.14
2018-03-07T04:59:24.065Z,3.08
2018-03-07T05:01:24.406Z,3.01
2018-03-07T05:02:24.585Z,2.89
2018-03-07T05:03:24.759Z,2.90
2018-03-07T05:04:24.930Z,2.95
2018-03-07T05:05:25.103Z,3.00
2018-03-07T05:06:25.276Z,3.05
2018-03-07T05:07:25.451Z,2.92
2018-03-07T05:08:25.628Z,2.85
2018-03-07T05:09:25.803Z,2.90
2018-03-07T05:10:25.985Z,2.95
2018-03-07T05:11:26.146Z,2.87
2018-03-07T05:12:26.324Z,2.93
2018-03-07T05:13:26.493Z,2.79
2018-03-07T05:14:26.668Z,2.82
2018-03-07T05:15:26.849Z,2.83
2018-03-07T05:16:27.017Z,2.82
2018-03-07T05:17:27.188Z,2.93
2018-03-07T05:18:27.365Z,2.95
2018-03-07T05:19:27.541Z,2.97
2018-03-07T05:20:27.724Z,2.79
2018-03-07T05:21:27.890Z,2.86
2018-03-07T05:22:28.069Z,2.93
2018-03-07T05:23:28.243Z,2.97
2018-03-07T05:24:28.407Z,2.93
2018-03-07T05:25:28.592Z,3.00
2018-03-07T05:26:28.758Z,3.03
2018-03-07T05:27:28.935Z,3.08
2018-03-07T05:28:29.111Z,3.10
2018-03-07T05:29:29.289Z,3.18
2018-03-07T05:30:29.465Z,3.11
2018-03-07T05:31:29.637Z,3.10
2018-03-07T05:32:29.816Z,3.18
2018-03-07T05:33:29.991Z,3.18
2018-03-07T05:34:30.157Z,3.14
2018-03-07T05:35:30.331Z,3.11
2018-03-07T05:36:30.507Z,3.22
2018-03-07T05:37:30.682Z,3.21
2018-03-07T05:38:30.860Z,3.18
2018-03-07T05:39:31.030Z,3.18
2018-03-07T05:40:31.206Z,3.19
2018-03-07T05:41:31.381Z,3.22
2018-03-07T05:42:31.553Z,3.19
2018-03-07T05:44:31.894Z,3.34
2018-03-07T05:45:32.069Z,3.37
2018-03-07T05:46:32.244Z,3.40
2018-03-07T05:47:32.418Z,3.41
2018-03-07T05:48:32.594Z,3.47
2018-03-07T05:49:32.776Z,3.48
2018-03-07T05:50:32.943Z,3.62
2018-03-07T05:51:33.128Z,3.65
2018-03-07T05:52:33.300Z,3.65
2018-03-07T05:53:33.487Z,3.63
2018-03-07T05:54:33.656Z,3.58
2018-03-07T05:55:33.822Z,3.45
2018-03-07T05:56:33.998Z,3.62
2018-03-07T05:57:34.171Z,3.51
2018-03-07T05:58:34.344Z,3.59
2018-03-07T05:59:34.519Z,3.58
2018-03-07T06:00:34.695Z,3.60
2018-03-07T06:01:34.873Z,3.76
2018-03-07T06:02:35.049Z,3.80
2018-03-07T06:03:35.222Z,3.74
2018-03-07T06:04:35.402Z,3.77
2018-03-07T06:05:35.579Z,3.88
2018-03-07T06:06:35.756Z,3.81
2018-03-07T06:07:35.933Z,3.73
2018-03-07T06:08:36.104Z,3.78
2018-03-07T06:09:36.280Z,3.83
2018-03-07T06:10:36.455Z,3.87
2018-03-07T06:11:36.633Z,3.86
2018-03-07T06:12:36.805Z,3.99
2018-03-07T06:13:36.979Z,3.95
2018-03-07T06:14:37.155Z,3.99
2018-03-07T06:15:37.339Z,4.04
2018-03-07T06:16:37.507Z,4.04
2018-03-07T06:17:37.690Z,4.04
2018-03-07T06:18:37.865Z,4.12
2018-03-07T06:19:38.048Z,4.06
2018-03-07T06:20:38.223Z,4.14
2018-03-07T06:21:38.400Z,4.14
2018-03-07T06:22:38.591Z,4.17
2018-03-07T06:23:38.772Z,4.06
2018-03-07T06:24:38.942Z,4.14
2018-03-07T06:25:39.121Z,4.10
2018-03-07T06:26:39.291Z,4.04
2018-03-07T06:27:39.462Z,4.13
2018-03-07T06:28:39.638Z,4.06
2018-03-07T06:29:39.817Z,3.99
2018-03-07T06:30:40.242Z,4.01
2018-03-07T06:31:40.164Z,3.94
2018-03-07T06:32:40.335Z,3.91
2018-03-07T06:33:40.518Z,3.94
2018-03-07T06:34:40.685Z,3.84
2018-03-07T06:35:40.871Z,3.87
2018-03-07T06:36:41.038Z,3.94
2018-03-07T06:37:41.217Z,3.95
2018-03-07T06:38:41.390Z,4.05
2018-03-07T06:39:41.559Z,4.05
2018-03-07T06:40:41.739Z,4.08
2018-03-07T06:41:41.915Z,4.08
2018-03-07T06:42:42.092Z,4.05
2018-03-07T06:43:42.294Z,4.04
2018-03-07T06:44:42.430Z,4.05
2018-03-07T06:45:42.607Z,4.05
2018-03-07T06:46:42.781Z,4.16
2018-03-07T06:47:42.959Z,4.20
2018-03-07T06:48:43.137Z,4.04
2018-03-07T06:49:43.313Z,4.06
2018-03-07T06:50:43.492Z,3.99
2018-03-07T06:51:43.684Z,4.08
2018-03-07T06:52:43.846Z,4.01
2018-03-07T06:53:44.025Z,3.99
2018-03-07T06:54:44.205Z,4.14
2018-03-07T06:55:44.376Z,4.08
2018-03-07T06:56:44.549Z,4.13
2018-03-07T06:57:44.726Z,4.06
2018-03-07T06:58:44.915Z,4.10
2018-03-07T06:59:45.086Z,4.19
2018-03-07T07:00:45.262Z,4.28
2018-03-07T07:01:45.434Z,4.20
2018-03-07T07:02:45.612Z,4.10
2018-03-07T07:03:45.794Z,4.08
2018-03-07T07:04:45.962Z,4.14
2018-03-07T07:05:46.138Z,4.17
2018-03-07T07:06:46.313Z,4.13
2018-03-07T07:07:46.493Z,4.10
2018-03-07T07:08:46.659Z,4.19
2018-03-07T07:09:46.838Z,4.30
2018-03-07T07:10:47.026Z,4.30
2018-03-07T07:11:47.190Z,4.31
2018-03-07T07:12:47.369Z,4.26
2018-03-07T07:13:47.543Z,4.23
2018-03-07T07:14:47.732Z,4.28
2018-03-07T07:15:47.901Z,4.31
2018-03-07T07:16:48.094Z,4.30
2018-03-07T07:17:48.249Z,4.30
2018-03-07T07:18:48.438Z,4.37
2018-03-07T07:19:48.612Z,4.37
2018-03-07T07:20:48.790Z,4.37
2018-03-07T07:21:48.963Z,4.40
2018-03-07T07:22:49.138Z,4.37
2018-03-07T07:23:49.331Z,4.40
2018-03-07T07:24:49.491Z,4.53
2018-03-07T07:25:49.663Z,4.59
2018-03-07T07:26:49.858Z,4.67
2018-03-07T07:27:50.012Z,4.58
2018-03-07T07:28:50.188Z,4.48
2018-03-07T07:29:50.367Z,4.45
2018-03-07T07:30:50.544Z,4.49
2018-03-07T07:31:50.713Z,4.50
2018-03-07T07:32:50.906Z,4.52
2018-03-07T07:33:51.079Z,4.52
2018-03-07T07:34:51.250Z,4.48
2018-03-07T07:35:51.420Z,4.63
2018-03-07T07:36:51.605Z,4.62
2018-03-07T07:37:51.769Z,4.58
2018-03-07T07:38:51.944Z,4.67
2018-03-07T07:39:52.116Z,4.56
2018-03-07T07:40:52.310Z,4.59
2018-03-07T07:41:52.485Z,4.70
2018-03-07T07:42:52.652Z,4.68
2018-03-07T07:43:52.811Z,4.74
2018-03-07T07:44:52.987Z,4.75
2018-03-07T07:45:53.168Z,4.80
2018-03-07T07:46:53.347Z,4.86
2018-03-07T07:47:53.516Z,4.90
2018-03-07T07:48:53.709Z,4.97
2018-03-07T07:49:53.864Z,5.04
2018-03-07T07:50:54.032Z,5.00
2018-03-07T07:51:54.226Z,5.15
2018-03-07T07:52:54.397Z,5.23
2018-03-07T07:53:54.570Z,5.25
2018-03-07T07:54:54.763Z,5.33
2018-03-07T07:55:54.941Z,5.29
2018-03-07T07:56:55.114Z,5.28
2018-03-07T07:57:55.298Z,5.33
2018-03-07T07:58:55.473Z,5.38
2018-03-07T07:59:55.643Z,5.36
2018-03-07T08:00:55.828Z,5.41
2018-03-07T08:01:55.998Z,5.44
2018-03-07T08:02:56.178Z,5.54
2018-03-07T08:03:56.355Z,5.33
2018-03-07T08:04:56.524Z,5.33
2018-03-07T08:05:56.714Z,5.25
2018-03-07T08:06:56.879Z,5.02
2018-03-07T08:07:57.053Z,5.05
2018-03-07T08:08:57.227Z,5.32
2018-03-07T08:09:57.406Z,5.33
2018-03-07T08:10:57.613Z,5.43
2018-03-07T08:11:57.791Z,5.39
2018-03-07T08:12:57.955Z,5.50
2018-03-07T08:13:58.139Z,5.56
2018-03-07T08:14:58.301Z,5.72
2018-03-07T08:15:58.475Z,5.73
2018-03-07T08:16:58.653Z,5.76
2018-03-07T08:17:58.832Z,5.73
2018-03-07T08:18:59.018Z,5.83
2018-03-07T08:19:59.186Z,5.75
2018-03-07T08:20:59.363Z,5.76
2018-03-07T08:21:59.552Z,5.73
2018-03-07T08:22:59.710Z,5.98
2018-03-07T08:23:59.894Z,5.75
2018-03-07T08:25:00.082Z,5.87
2018-03-07T08:26:00.236Z,5.80
2018-03-07T08:27:00.405Z,5.99
2018-03-07T08:28:00.589Z,5.98
2018-03-07T08:29:00.771Z,5.79
2018-03-07T08:30:00.935Z,5.91
2018-03-07T08:31:01.116Z,5.93
2018-03-07T08:32:01.295Z,5.75
2018-03-07T08:33:01.474Z,5.90
2018-03-07T08:34:01.647Z,5.72
2018-03-07T08:35:01.822Z,5.73
2018-03-07T08:36:02.004Z,5.83
2018-03-07T08:37:02.181Z,5.86
2018-03-07T08:38:02.612Z,5.80
2018-03-07T08:39:02.532Z,5.75
2018-03-07T08:40:02.714Z,5.71
2018-03-07T08:41:02.894Z,5.71
2018-03-07T08:42:03.054Z,5.93
2018-03-07T08:43:03.240Z,5.84
2018-03-07T08:44:03.406Z,5.86
2018-03-07T08:45:03.583Z,5.89
2018-03-07T08:46:03.792Z,5.97
2018-03-07T08:47:03.943Z,5.91
2018-03-07T08:48:04.140Z,6.01
2018-03-07T08:49:04.311Z,6.07
2018-03-07T08:50:04.491Z,6.01
2018-03-07T08:51:04.666Z,6.22
2018-03-07T08:52:04.843Z,6.31
2018-03-07T08:53:05.015Z,6.36
2018-03-07T08:54:05.189Z,6.54
2018-03-07T08:55:05.365Z,7.23
2018-03-07T08:56:05.540Z,7.48
2018-03-07T08:57:05.725Z,7.48
2018-03-07T08:58:05.959Z,7.21
2018-03-07T08:59:06.073Z,7.23
2018-03-07T09:00:06.261Z,7.21
2018-03-07T09:01:06.437Z,7.07
2018-03-07T09:02:06.613Z,7.18
2018-03-07T09:03:06.792Z,7.25
2018-03-07T09:04:06.964Z,7.23
2018-03-07T09:05:07.140Z,6.92
2018-03-07T09:06:07.319Z,6.79
2018-03-07T09:07:07.494Z,6.87
2018-03-07T09:09:07.855Z,7.03
2018-03-07T09:10:08.042Z,7.03
2018-03-07T09:11:08.211Z,7.10
2018-03-07T09:12:08.394Z,7.10
2018-03-07T09:13:08.568Z,7.07
2018-03-07T09:14:08.756Z,7.15
2018-03-07T09:15:08.917Z,7.28
2018-03-07T09:16:09.097Z,7.31
2018-03-07T09:17:09.278Z,7.57
2018-03-07T09:18:09.455Z,7.63
2018-03-07T09:19:09.629Z,7.66
2018-03-07T09:20:09.802Z,7.67
2018-03-07T09:21:09.997Z,7.66
2018-03-07T09:22:10.154Z,7.76
2018-03-07T09:23:10.324Z,7.60
2018-03-07T09:24:10.503Z,7.63
2018-03-07T09:25:10.677Z,7.61
2018-03-07T09:26:10.855Z,7.53
2018-03-07T09:27:11.054Z,7.56
2018-03-07T09:28:11.212Z,7.58
2018-03-07T09:29:11.397Z,7.60
2018-03-07T09:30:11.570Z,7.72
2018-03-07T09:31:11.750Z,7.54
2018-03-07T09:32:11.931Z,7.70
2018-03-07T09:33:12.102Z,7.63
2018-03-07T09:34:12.286Z,7.70
2018-03-07T09:35:12.454Z,7.76
2018-03-07T09:36:12.625Z,7.90
2018-03-07T09:37:12.804Z,7.91
2018-03-07T09:38:12.983Z,8.08
2018-03-07T09:39:13.162Z,8.19
2018-03-07T09:40:13.335Z,8.05
2018-03-07T09:41:13.514Z,8.13
2018-03-07T09:42:13.696Z,8.08
2018-03-07T09:43:13.874Z,8.01
2018-03-07T09:44:14.055Z,8.09
2018-03-07T09:45:14.480Z,8.19
2018-03-07T09:46:14.410Z,8.16
2018-03-07T09:47:14.593Z,8.23
2018-03-07T09:48:14.764Z,8.13
2018-03-07T09:49:14.942Z,8.24
2018-03-07T09:50:15.120Z,8.36
2018-03-07T09:51:15.345Z,8.38
2018-03-07T09:52:15.487Z,8.28
2018-03-07T09:53:15.663Z,8.36
2018-03-07T09:54:15.842Z,8.48
2018-03-07T09:55:16.023Z,8.44
2018-03-07T09:56:16.217Z,9.18
2018-03-07T09:57:16.373Z,10.19
2018-03-07T09:58:16.560Z,10.81
2018-03-07T09:59:16.711Z,10.72
2018-03-07T10:00:16.884Z,10.92
2018-03-07T10:01:17.073Z,10.28
2018-03-07T10:02:17.242Z,10.23
2018-03-07T10:03:17.423Z,10.28
2018-03-07T10:04:17.601Z,10.31
2018-03-07T10:05:17.778Z,10.82
2018-03-07T10:06:17.967Z,11.66
2018-03-07T10:07:18.148Z,12.00
2018-03-07T10:08:18.335Z,11.91
2018-03-07T10:09:18.516Z,11.88
2018-03-07T10:10:18.693Z,11.57
2018-03-07T10:11:18.877Z,11.87
2018-03-07T10:12:19.059Z,11.55
2018-03-07T10:13:19.247Z,10.57
2018-03-07T10:14:19.429Z,10.49
2018-03-07T10:15:19.628Z,10.56
2018-03-07T10:16:19.796Z,10.42
2018-03-07T10:17:19.976Z,10.17
2018-03-07T10:18:20.157Z,9.72
2018-03-07T10:19:20.337Z,10.12
2018-03-07T10:20:20.526Z,9.76
2018-03-07T10:21:20.725Z,10.07
2018-03-07T10:22:20.880Z,10.09
2018-03-07T10:23:21.079Z,10.16
2018-03-07T10:24:21.239Z,9.98
2018-03-07T10:25:21.413Z,9.98
2018-03-07T10:26:21.592Z,10.17
2018-03-07T10:27:21.775Z,10.02
2018-03-07T10:28:21.956Z,10.23
2018-03-07T10:30:22.317Z,10.30
2018-03-07T10:31:22.481Z,10.53
2018-03-07T10:32:22.683Z,10.53
2018-03-07T10:33:22.857Z,10.69
2018-03-07T10:34:23.043Z,10.46
2018-03-07T10:35:23.221Z,10.12
2018-03-07T10:36:23.403Z,10.16
2018-03-07T10:37:23.585Z,10.69
2018-03-07T10:38:23.769Z,10.49
2018-03-07T10:39:23.950Z,10.16
2018-03-07T10:40:24.126Z,10.61
2018-03-07T10:41:24.309Z,10.72
2018-03-07T10:42:24.496Z,10.59
2018-03-07T10:43:24.674Z,11.02
2018-03-07T10:44:24.851Z,10.42
2018-03-07T10:45:25.036Z,10.49
2018-03-07T10:46:25.213Z,10.87
2018-03-07T10:47:25.398Z,11.62
2018-03-07T10:48:25.579Z,11.86
2018-03-07T10:49:25.802Z,11.37
2018-03-07T10:50:25.923Z,10.89
2018-03-07T10:51:26.133Z,10.22
2018-03-07T10:52:26.318Z,9.94
2018-03-07T10:53:26.484Z,9.91
2018-03-07T10:54:26.672Z,9.89
2018-03-07T10:55:26.852Z,9.99
2018-03-07T10:56:27.037Z,10.19
2018-03-07T10:57:27.215Z,10.97
2018-03-07T10:58:27.414Z,11.37
2018-03-07T10:59:27.588Z,12.13
2018-03-07T11:00:27.775Z,13.22
2018-03-07T11:01:27.960Z,13.27
2018-03-07T11:02:28.177Z,12.76
2018-03-07T11:03:28.320Z,12.20
2018-03-07T11:04:28.497Z,12.17
2018-03-07T11:05:28.680Z,11.59
2018-03-07T11:06:28.865Z,11.12
2018-03-07T11:07:29.043Z,10.94
2018-03-07T11:08:29.230Z,10.92
2018-03-07T11:09:29.415Z,10.57
2018-03-07T11:10:29.602Z,10.54
2018-03-07T11:11:29.779Z,10.53
2018-03-07T11:12:29.968Z,10.28
2018-03-07T11:13:30.790Z,10.40
2018-03-07T11:14:30.304Z,10.12
2018-03-07T11:15:30.489Z,10.22
2018-03-07T11:16:30.671Z,10.23
2018-03-07T11:17:30.847Z,10.34
2018-03-07T11:18:31.085Z,11.27
2018-03-07T11:19:31.224Z,12.29
2018-03-07T11:21:31.583Z,13.18
2018-03-07T11:22:31.764Z,13.87
2018-03-07T11:23:31.955Z,14.43
2018-03-07T11:24:32.133Z,14.89
2018-03-07T11:25:32.314Z,14.66
2018-03-07T11:26:32.503Z,14.29
2018-03-07T11:27:32.683Z,13.60
2018-03-07T11:28:32.878Z,13.28
2018-03-07T11:29:33.091Z,12.42
2018-03-07T11:30:33.235Z,12.00
2018-03-07T11:31:33.415Z,11.41
2018-03-07T11:32:33.600Z,11.59
2018-03-07T11:33:33.785Z,11.72
2018-03-07T11:34:33.966Z,11.66
2018-03-07T11:35:34.150Z,12.17
2018-03-07T11:36:34.395Z,11.91
2018-03-07T11:37:34.559Z,11.32
2018-03-07T11:38:34.766Z,10.89
2018-03-07T11:39:34.947Z,10.94
2018-03-07T11:40:35.115Z,10.64
2018-03-07T11:41:35.295Z,10.51
2018-03-07T11:42:35.473Z,10.48
2018-03-07T11:43:35.662Z,10.38
2018-03-07T11:45:36.022Z,10.15
2018-03-07T11:46:36.201Z,10.09
2018-03-07T11:47:36.404Z,10.12
2018-03-07T11:48:36.565Z,10.22
2018-03-07T11:49:36.746Z,10.22
2018-03-07T11:50:36.924Z,10.10
2018-03-07T11:51:37.106Z,10.15
2018-03-07T11:52:37.288Z,10.12
2018-03-07T11:53:37.477Z,10.01
2018-03-07T11:54:37.652Z,10.04
2018-03-07T11:55:37.835Z,9.87
2018-03-07T11:56:38.009Z,9.74
2018-03-07T11:57:38.193Z,9.69
2018-03-07T11:58:38.375Z,9.61
2018-03-07T11:59:38.563Z,9.55
2018-03-07T12:00:38.725Z,9.55
2018-03-07T12:01:38.900Z,9.64
2018-03-07T12:02:39.088Z,9.74
2018-03-07T12:03:39.268Z,9.69
2018-03-07T12:04:39.448Z,9.51
2018-03-07T12:05:39.628Z,9.73
2018-03-07T12:06:39.812Z,9.48
2018-03-07T12:07:39.994Z,9.37
2018-03-07T12:08:40.427Z,9.51
2018-03-07T12:09:40.349Z,9.32
2018-03-07T12:10:40.531Z,9.31
2018-03-07T12:11:40.703Z,9.31
2018-03-07T12:12:40.886Z,9.21
2018-03-07T12:13:41.073Z,9.03
2018-03-07T12:14:41.242Z,9.06
2018-03-07T12:15:41.415Z,9.03
2018-03-07T12:16:41.590Z,9.11
2018-03-07T12:17:41.785Z,9.08
2018-03-07T12:18:42.204Z,9.13
2018-03-07T12:19:42.127Z,9.16
2018-03-07T12:20:42.300Z,8.92
2018-03-07T12:21:42.486Z,8.97
2018-03-07T12:22:42.656Z,8.84
2018-03-07T12:23:42.835Z,8.92
2018-03-07T12:24:43.029Z,8.84
2018-03-07T12:25:43.192Z,8.81
2018-03-07T12:26:43.372Z,8.85
2018-03-07T12:27:43.605Z,8.88
2018-03-07T12:28:43.741Z,8.84
2018-03-07T12:29:43.935Z,8.85
2018-03-07T12:30:44.130Z,8.74
2018-03-07T12:31:44.314Z,8.70
2018-03-07T12:32:44.483Z,8.71
2018-03-07T12:33:44.667Z,8.67
2018-03-07T12:34:44.827Z,8.85
2018-03-07T12:35:45.013Z,8.81
2018-03-07T12:36:45.188Z,8.66
2018-03-07T12:37:45.366Z,8.61
2018-03-07T12:38:45.886Z,8.66
2018-03-07T12:39:45.700Z,8.52
2018-03-07T12:40:45.867Z,8.49
2018-03-07T12:41:46.110Z,8.37
2018-03-07T12:42:46.224Z,8.33
2018-03-07T12:43:46.641Z,8.41
2018-03-07T12:44:46.529Z,8.28
2018-03-07T12:45:46.696Z,8.26
2018-03-07T12:46:46.890Z,8.24
2018-03-07T12:47:47.053Z,8.27
2018-03-07T12:48:47.236Z,8.24
2018-03-07T12:49:47.403Z,8.37
2018-03-07T12:50:47.588Z,8.27
2018-03-07T12:51:47.757Z,8.28
2018-03-07T12:52:47.940Z,8.46
2018-03-07T12:53:48.114Z,8.33
2018-03-07T12:54:48.283Z,8.27
2018-03-07T12:55:48.462Z,8.23
2018-03-07T12:56:48.631Z,8.27
2018-03-07T12:57:49.049Z,8.27
2018-03-07T12:58:48.991Z,8.36
2018-03-07T12:59:49.162Z,8.28
2018-03-07T13:00:49.322Z,8.37
2018-03-07T13:01:49.509Z,8.33
2018-03-07T13:02:49.680Z,8.31
2018-03-07T13:03:49.863Z,8.28
2018-03-07T13:04:50.036Z,8.28
2018-03-07T13:05:50.849Z,8.33
2018-03-07T13:06:50.395Z,8.13
2018-03-07T13:07:50.553Z,8.13
2018-03-07T13:08:50.753Z,8.18
2018-03-07T13:09:50.946Z,8.10
2018-03-07T13:10:51.134Z,8.06
2018-03-07T13:11:51.532Z,7.94
2018-03-07T13:12:51.486Z,8.00
2018-03-07T13:13:51.671Z,8.05
2018-03-07T13:14:51.825Z,8.05
2018-03-07T13:15:52.276Z,8.20
2018-03-07T13:16:52.217Z,8.19
2018-03-07T13:17:52.427Z,8.30
2018-03-07T13:18:52.560Z,8.27
2018-03-07T13:19:52.739Z,8.36
2018-03-07T13:20:52.927Z,8.26
2018-03-07T13:21:53.077Z,8.31
2018-03-07T13:22:53.313Z,8.36
2018-03-07T13:23:53.442Z,8.49
2018-03-07T13:24:53.629Z,8.49
2018-03-07T13:25:53.818Z,8.66
2018-03-07T13:26:53.979Z,8.55